sensor_id;sensor_type;location;lat;lon;timestamp;pressure;altitude;pressure_sealevel;temperature;humidity
24160;BME280;62385;41.594;23.808;2023-04-25T00:02:18;94824.94;;;13.71;70.76
24160;BME280;62385;41.594;23.808;2023-04-25T00:04:44;94831.69;;;13.28;72.44
24160;BME280;62385;41.594;23.808;2023-04-25T00:07:10;94830.25;;;13.19;72.49
24160;BME280;62385;41.594;23.808;2023-04-25T00:09:36;94825.09;;;13.04;72.70
24160;BME280;62385;41.594;23.808;2023-04-25T00:12:02;94825.31;;;12.55;74.47
24160;BME280;62385;41.594;23.808;2023-04-25T00:14:28;94822.16;;;12.38;75.89
24160;BME280;62385;41.594;23.808;2023-04-25T00:16:54;94818.50;;;13.07;72.33
24160;BME280;62385;41.594;23.808;2023-04-25T00:19:20;94809.78;;;13.46;71.58
24160;BME280;62385;41.594;23.808;2023-04-25T00:21:45;94807.72;;;13.67;71.30
24160;BME280;62385;41.594;23.808;2023-04-25T00:24:12;94800.75;;;13.66;71.29
24160;BME280;62385;41.594;23.808;2023-04-25T00:26:37;94801.34;;;13.75;70.37
24160;BME280;62385;41.594;23.808;2023-04-25T00:29:03;94796.84;;;13.69;71.41
24160;BME280;62385;41.594;23.808;2023-04-25T00:31:29;94798.25;;;13.58;71.86
24160;BME280;62385;41.594;23.808;2023-04-25T00:33:55;94798.88;;;13.67;71.30
24160;BME280;62385;41.594;23.808;2023-04-25T00:36:20;94784.13;;;13.51;71.90
24160;BME280;62385;41.594;23.808;2023-04-25T00:38:47;94789.66;;;13.56;72.15
24160;BME280;62385;41.594;23.808;2023-04-25T00:41:13;94789.03;;;13.80;71.47
24160;BME280;62385;41.594;23.808;2023-04-25T00:43:39;94789.66;;;13.82;71.67
24160;BME280;62385;41.594;23.808;2023-04-25T00:46:05;94784.94;;;13.78;70.86
24160;BME280;62385;41.594;23.808;2023-04-25T00:48:31;94780.84;;;13.62;72.26
24160;BME280;62385;41.594;23.808;2023-04-25T00:50:58;94784.34;;;13.50;72.42
24160;BME280;62385;41.594;23.808;2023-04-25T00:53:26;94791.28;;;13.77;71.93
24160;BME280;62385;41.594;23.808;2023-04-25T00:55:52;94788.66;;;13.70;71.47
24160;BME280;62385;41.594;23.808;2023-04-25T00:58:21;94773.66;;;13.82;71.17
24160;BME280;62385;41.594;23.808;2023-04-25T01:00:48;94778.56;;;13.85;71.29
24160;BME280;62385;41.594;23.808;2023-04-25T01:03:16;94773.81;;;13.87;69.99
24160;BME280;62385;41.594;23.808;2023-04-25T01:05:45;94780.44;;;13.78;71.31
24160;BME280;62385;41.594;23.808;2023-04-25T01:08:12;94782.06;;;13.60;71.72
24160;BME280;62385;41.594;23.808;2023-04-25T01:10:38;94775.69;;;13.67;71.24
24160;BME280;62385;41.594;23.808;2023-04-25T01:13:04;94768.13;;;13.51;71.75
24160;BME280;62385;41.594;23.808;2023-04-25T01:15:30;94765.03;;;13.54;71.29
24160;BME280;62385;41.594;23.808;2023-04-25T01:17:57;94760.53;;;13.61;70.96
24160;BME280;62385;41.594;23.808;2023-04-25T01:20:24;94760.53;;;13.55;71.19
24160;BME280;62385;41.594;23.808;2023-04-25T01:22:50;94766.97;;;12.54;73.89
24160;BME280;62385;41.594;23.808;2023-04-25T01:25:17;94767.03;;;12.86;73.73
24160;BME280;62385;41.594;23.808;2023-04-25T01:27:44;94762.56;;;13.00;73.31
24160;BME280;62385;41.594;23.808;2023-04-25T01:30:10;94754.19;;;13.49;72.01
24160;BME280;62385;41.594;23.808;2023-04-25T01:32:37;94748.66;;;13.57;71.18
24160;BME280;62385;41.594;23.808;2023-04-25T01:35:07;94751.06;;;13.78;70.70
24160;BME280;62385;41.594;23.808;2023-04-25T01:37:39;94751.47;;;13.75;71.01
24160;BME280;62385;41.594;23.808;2023-04-25T01:40:05;94756.84;;;13.62;70.73
24160;BME280;62385;41.594;23.808;2023-04-25T01:42:36;94760.69;;;13.01;71.42
24160;BME280;62385;41.594;23.808;2023-04-25T01:45:04;94743.94;;;13.26;70.70
24160;BME280;62385;41.594;23.808;2023-04-25T01:47:30;94747.19;;;13.61;69.92
24160;BME280;62385;41.594;23.808;2023-04-25T01:49:56;94743.69;;;13.54;70.11
24160;BME280;62385;41.594;23.808;2023-04-25T01:52:22;94731.81;;;13.57;69.93
24160;BME280;62385;41.594;23.808;2023-04-25T01:54:49;94738.00;;;13.44;71.30
24160;BME280;62385;41.594;23.808;2023-04-25T01:57:16;94728.56;;;13.42;72.12
24160;BME280;62385;41.594;23.808;2023-04-25T01:59:43;94729.34;;;13.55;71.01
24160;BME280;62385;41.594;23.808;2023-04-25T02:02:20;94732.66;;;13.44;71.38
24160;BME280;62385;41.594;23.808;2023-04-25T02:04:47;94737.16;;;13.50;71.73
24160;BME280;62385;41.594;23.808;2023-04-25T02:07:15;94729.78;;;13.52;70.62
24160;BME280;62385;41.594;23.808;2023-04-25T02:09:49;94725.91;;;13.42;70.89
24160;BME280;62385;41.594;23.808;2023-04-25T02:12:17;94711.34;;;13.37;71.13
24160;BME280;62385;41.594;23.808;2023-04-25T02:15:14;94716.84;;;13.49;71.47
24160;BME280;62385;41.594;23.808;2023-04-25T02:17:50;94726.31;;;13.45;70.24
24160;BME280;62385;41.594;23.808;2023-04-25T02:20:22;94715.03;;;13.23;69.45
24160;BME280;62385;41.594;23.808;2023-04-25T02:22:49;94729.78;;;13.46;69.94
24160;BME280;62385;41.594;23.808;2023-04-25T02:25:14;94717.03;;;13.54;70.27
24160;BME280;62385;41.594;23.808;2023-04-25T02:27:41;94710.53;;;13.37;70.54
24160;BME280;62385;41.594;23.808;2023-04-25T02:30:08;94706.78;;;12.85;72.75
24160;BME280;62385;41.594;23.808;2023-04-25T02:32:34;94718.28;;;13.25;72.29
24160;BME280;62385;41.594;23.808;2023-04-25T02:35:01;94708.47;;;13.26;71.04
24160;BME280;62385;41.594;23.808;2023-04-25T02:37:35;94719.13;;;13.26;70.00
24160;BME280;62385;41.594;23.808;2023-04-25T02:40:01;94715.03;;;13.17;70.65
24160;BME280;62385;41.594;23.808;2023-04-25T02:42:27;94716.25;;;13.34;70.21
24160;BME280;62385;41.594;23.808;2023-04-25T02:44:53;94715.66;;;13.19;70.91
24160;BME280;62385;41.594;23.808;2023-04-25T02:47:19;94716.81;;;12.96;72.06
24160;BME280;62385;41.594;23.808;2023-04-25T02:49:45;94711.13;;;13.26;70.66
24160;BME280;62385;41.594;23.808;2023-04-25T02:52:11;94709.28;;;13.33;71.63
24160;BME280;62385;41.594;23.808;2023-04-25T02:54:38;94712.97;;;13.32;70.75
24160;BME280;62385;41.594;23.808;2023-04-25T02:57:03;94715.84;;;13.04;71.04
24160;BME280;62385;41.594;23.808;2023-04-25T02:59:34;94718.69;;;12.96;70.36
24160;BME280;62385;41.594;23.808;2023-04-25T03:02:00;94718.50;;;13.11;69.55
24160;BME280;62385;41.594;23.808;2023-04-25T03:04:27;94716.19;;;12.88;71.13
24160;BME280;62385;41.594;23.808;2023-04-25T03:06:54;94724.78;;;12.57;70.97
24160;BME280;62385;41.594;23.808;2023-04-25T03:09:20;94712.31;;;12.77;71.84
24160;BME280;62385;41.594;23.808;2023-04-25T03:11:47;94720.88;;;12.53;71.64
24160;BME280;62385;41.594;23.808;2023-04-25T03:14:13;94717.84;;;12.63;71.19
24160;BME280;62385;41.594;23.808;2023-04-25T03:16:39;94721.84;;;12.39;71.05
24160;BME280;62385;41.594;23.808;2023-04-25T03:19:05;94725.38;;;12.59;70.29
24160;BME280;62385;41.594;23.808;2023-04-25T03:21:32;94724.44;;;13.13;69.20
24160;BME280;62385;41.594;23.808;2023-04-25T03:24:00;94735.84;;;12.54;69.61
24160;BME280;62385;41.594;23.808;2023-04-25T03:26:26;94722.34;;;12.88;69.43
24160;BME280;62385;41.594;23.808;2023-04-25T03:28:51;94723.41;;;12.87;69.64
24160;BME280;62385;41.594;23.808;2023-04-25T03:31:17;94727.66;;;12.69;70.41
24160;BME280;62385;41.594;23.808;2023-04-25T03:33:42;94712.91;;;12.73;70.16
24160;BME280;62385;41.594;23.808;2023-04-25T03:36:08;94729.81;;;11.85;72.89
24160;BME280;62385;41.594;23.808;2023-04-25T03:38:35;94727.38;;;11.83;73.39
24160;BME280;62385;41.594;23.808;2023-04-25T03:41:01;94734.47;;;11.76;72.93
24160;BME280;62385;41.594;23.808;2023-04-25T03:43:47;94726.59;;;11.62;73.88
24160;BME280;62385;41.594;23.808;2023-04-25T03:46:15;94723.94;;;11.62;73.18
24160;BME280;62385;41.594;23.808;2023-04-25T03:48:42;94723.22;;;11.74;73.43
24160;BME280;62385;41.594;23.808;2023-04-25T03:51:10;94721.41;;;11.47;73.11
24160;BME280;62385;41.594;23.808;2023-04-25T03:53:39;94722.78;;;11.71;73.24
24160;BME280;62385;41.594;23.808;2023-04-25T03:56:25;94724.63;;;12.18;72.17
24160;BME280;62385;41.594;23.808;2023-04-25T03:59:00;94715.31;;;11.87;73.39
24160;BME280;62385;41.594;23.808;2023-04-25T04:01:28;94721.06;;;12.45;71.50
24160;BME280;62385;41.594;23.808;2023-04-25T04:03:54;94730.28;;;11.95;72.86
24160;BME280;62385;41.594;23.808;2023-04-25T04:06:20;94728.81;;;11.58;73.54
24160;BME280;62385;41.594;23.808;2023-04-25T04:08:50;94723.22;;;11.74;73.49
24160;BME280;62385;41.594;23.808;2023-04-25T04:11:16;94717.91;;;11.74;73.68
24160;BME280;62385;41.594;23.808;2023-04-25T04:13:41;94727.75;;;11.80;73.93
24160;BME280;62385;41.594;23.808;2023-04-25T04:16:08;94729.44;;;12.42;72.16
24160;BME280;62385;41.594;23.808;2023-04-25T04:18:34;94727.50;;;12.16;72.63
24160;BME280;62385;41.594;23.808;2023-04-25T04:21:01;94725.63;;;12.10;73.31
24160;BME280;62385;41.594;23.808;2023-04-25T04:23:29;94729.94;;;12.05;73.02
24160;BME280;62385;41.594;23.808;2023-04-25T04:25:56;94735.47;;;12.70;71.44
24160;BME280;62385;41.594;23.808;2023-04-25T04:28:43;94731.38;;;13.01;69.60
24160;BME280;62385;41.594;23.808;2023-04-25T04:31:17;94732.44;;;12.26;72.82
24160;BME280;62385;41.594;23.808;2023-04-25T04:33:45;94733.72;;;12.30;72.82
24160;BME280;62385;41.594;23.808;2023-04-25T04:36:13;94733.59;;;12.64;72.24
24160;BME280;62385;41.594;23.808;2023-04-25T04:38:39;94735.28;;;12.18;74.06
24160;BME280;62385;41.594;23.808;2023-04-25T04:41:16;94736.31;;;12.90;71.47
24160;BME280;62385;41.594;23.808;2023-04-25T04:43:59;94732.03;;;13.22;69.27
24160;BME280;62385;41.594;23.808;2023-04-25T04:46:53;94731.47;;;12.33;72.83
24160;BME280;62385;41.594;23.808;2023-04-25T04:49:30;94730.94;;;12.03;74.50
24160;BME280;62385;41.594;23.808;2023-04-25T04:52:09;94725.88;;;12.22;73.43
24160;BME280;62385;41.594;23.808;2023-04-25T04:55:05;94716.03;;;12.96;70.64
24160;BME280;62385;41.594;23.808;2023-04-25T04:57:58;94715.97;;;13.81;68.11
24160;BME280;62385;41.594;23.808;2023-04-25T05:00:38;94715.97;;;13.75;67.56
24160;BME280;62385;41.594;23.808;2023-04-25T05:03:12;94715.59;;;13.06;70.11
24160;BME280;62385;41.594;23.808;2023-04-25T05:05:59;94712.56;;;13.35;70.44
24160;BME280;62385;41.594;23.808;2023-04-25T05:08:32;94706.53;;;13.72;68.25
24160;BME280;62385;41.594;23.808;2023-04-25T05:11:17;94709.25;;;13.59;69.30
24160;BME280;62385;41.594;23.808;2023-04-25T05:14:09;94701.19;;;13.85;67.73
24160;BME280;62385;41.594;23.808;2023-04-25T05:16:53;94690.34;;;13.74;69.13
24160;BME280;62385;41.594;23.808;2023-04-25T05:19:41;94679.91;;;14.93;65.80
24160;BME280;62385;41.594;23.808;2023-04-25T05:22:30;94693.78;;;14.76;65.27
24160;BME280;62385;41.594;23.808;2023-04-25T05:25:18;94689.22;;;14.84;65.59
24160;BME280;62385;41.594;23.808;2023-04-25T05:28:07;94684.91;;;14.07;69.15
24160;BME280;62385;41.594;23.808;2023-04-25T05:30:42;94683.09;;;13.94;69.70
24160;BME280;62385;41.594;23.808;2023-04-25T05:33:13;94684.41;;;14.23;68.60
24160;BME280;62385;41.594;23.808;2023-04-25T05:35:39;94687.66;;;14.25;68.58
24160;BME280;62385;41.594;23.808;2023-04-25T05:38:04;94692.22;;;14.18;69.58
24160;BME280;62385;41.594;23.808;2023-04-25T05:40:51;94697.09;;;14.34;69.75
24160;BME280;62385;41.594;23.808;2023-04-25T05:43:34;94685.47;;;14.60;68.41
24160;BME280;62385;41.594;23.808;2023-04-25T05:46:20;94683.09;;;14.45;67.98
24160;BME280;62385;41.594;23.808;2023-04-25T05:49:24;94678.34;;;14.78;66.26
24160;BME280;62385;41.594;23.808;2023-04-25T05:52:18;94684.56;;;14.72;66.80
24160;BME280;62385;41.594;23.808;2023-04-25T05:55:02;94686.25;;;14.67;67.89
24160;BME280;62385;41.594;23.808;2023-04-25T05:57:29;94680.94;;;14.60;67.39
24160;BME280;62385;41.594;23.808;2023-04-25T05:59:55;94686.50;;;14.59;65.61
24160;BME280;62385;41.594;23.808;2023-04-25T06:02:38;94681.88;;;14.41;67.30
24160;BME280;62385;41.594;23.808;2023-04-25T06:05:05;94690.63;;;14.61;66.90
24160;BME280;62385;41.594;23.808;2023-04-25T06:07:31;94682.50;;;14.74;65.43
24160;BME280;62385;41.594;23.808;2023-04-25T06:09:58;94680.88;;;14.73;64.63
24160;BME280;62385;41.594;23.808;2023-04-25T06:12:24;94682.31;;;15.01;64.35
24160;BME280;62385;41.594;23.808;2023-04-25T06:14:51;94674.50;;;15.24;64.20
24160;BME280;62385;41.594;23.808;2023-04-25T06:17:17;94676.25;;;15.12;64.83
24160;BME280;62385;41.594;23.808;2023-04-25T06:19:44;94682.66;;;14.79;64.37
24160;BME280;62385;41.594;23.808;2023-04-25T06:22:11;94693.09;;;14.88;64.65
24160;BME280;62385;41.594;23.808;2023-04-25T06:24:39;94686.56;;;15.08;63.41
24160;BME280;62385;41.594;23.808;2023-04-25T06:27:05;94678.06;;;15.18;63.70
24160;BME280;62385;41.594;23.808;2023-04-25T06:36:18;94685.16;;;15.74;61.75
24160;BME280;62385;41.594;23.808;2023-04-25T06:58:40;94672.75;;;14.87;61.53
24160;BME280;62385;41.594;23.808;2023-04-25T07:01:18;94673.16;;;14.90;63.46
24160;BME280;62385;41.594;23.808;2023-04-25T07:03:44;94675.00;;;15.82;61.00
24160;BME280;62385;41.594;23.808;2023-04-25T07:06:58;94682.34;;;15.68;62.12
24160;BME280;62385;41.594;23.808;2023-04-25T07:41:49;94648.91;;;17.27;58.62
24160;BME280;62385;41.594;23.808;2023-04-25T07:44:21;94659.00;;;18.18;57.09
24160;BME280;62385;41.594;23.808;2023-04-25T07:46:47;94657.03;;;18.13;55.34
24160;BME280;62385;41.594;23.808;2023-04-25T07:49:13;94657.88;;;18.54;54.77
24160;BME280;62385;41.594;23.808;2023-04-25T07:51:41;94650.31;;;17.64;56.43
24160;BME280;62385;41.594;23.808;2023-04-25T07:54:13;94646.00;;;17.51;57.45
24160;BME280;62385;41.594;23.808;2023-04-25T07:56:44;94643.19;;;18.33;56.69
24160;BME280;62385;41.594;23.808;2023-04-25T07:59:12;94649.44;;;18.10;56.93
24160;BME280;62385;41.594;23.808;2023-04-25T08:01:39;94642.78;;;18.53;55.10
24160;BME280;62385;41.594;23.808;2023-04-25T08:04:06;94650.06;;;18.69;54.38
24160;BME280;62385;41.594;23.808;2023-04-25T08:06:49;94649.16;;;18.23;55.32
24160;BME280;62385;41.594;23.808;2023-04-25T08:09:22;94659.44;;;18.66;55.54
24160;BME280;62385;41.594;23.808;2023-04-25T08:11:48;94669.81;;;17.71;58.03
24160;BME280;62385;41.594;23.808;2023-04-25T08:14:16;94660.06;;;19.02;54.41
24160;BME280;62385;41.594;23.808;2023-04-25T08:16:43;94661.56;;;18.64;57.25
24160;BME280;62385;41.594;23.808;2023-04-25T08:19:09;94664.81;;;18.95;54.82
24160;BME280;62385;41.594;23.808;2023-04-25T08:21:37;94656.59;;;18.05;56.52
24160;BME280;62385;41.594;23.808;2023-04-25T08:24:07;94667.97;;;18.92;54.61
24160;BME280;62385;41.594;23.808;2023-04-25T08:26:36;94660.75;;;19.09;54.78
24160;BME280;62385;41.594;23.808;2023-04-25T08:29:04;94666.00;;;18.87;54.29
24160;BME280;62385;41.594;23.808;2023-04-25T08:31:31;94661.50;;;19.38;55.19
24160;BME280;62385;41.594;23.808;2023-04-25T08:34:00;94658.50;;;18.89;55.25
24160;BME280;62385;41.594;23.808;2023-04-25T08:36:42;94661.53;;;18.92;55.03
24160;BME280;62385;41.594;23.808;2023-04-25T08:39:27;94665.06;;;18.65;57.39
24160;BME280;62385;41.594;23.808;2023-04-25T08:42:27;94664.56;;;17.76;59.82
24160;BME280;62385;41.594;23.808;2023-04-25T08:44:53;94666.66;;;18.37;56.47
24160;BME280;62385;41.594;23.808;2023-04-25T08:47:22;94655.25;;;18.19;57.83
24160;BME280;62385;41.594;23.808;2023-04-25T08:49:53;94658.47;;;19.01;55.13
24160;BME280;62385;41.594;23.808;2023-04-25T08:52:22;94653.66;;;18.06;53.31
24160;BME280;62385;41.594;23.808;2023-04-25T08:54:49;94654.75;;;17.70;52.17
24160;BME280;62385;41.594;23.808;2023-04-25T08:57:18;94654.53;;;18.23;52.31
24160;BME280;62385;41.594;23.808;2023-04-25T08:59:45;94649.25;;;18.00;52.40
24160;BME280;62385;41.594;23.808;2023-04-25T09:02:11;94650.66;;;18.31;52.52
24160;BME280;62385;41.594;23.808;2023-04-25T09:04:43;94647.03;;;19.10;52.65
24160;BME280;62385;41.594;23.808;2023-04-25T09:07:10;94642.97;;;18.23;53.53
24160;BME280;62385;41.594;23.808;2023-04-25T09:09:36;94637.09;;;17.86;55.08
24160;BME280;62385;41.594;23.808;2023-04-25T09:12:02;94631.06;;;19.20;53.60
24160;BME280;62385;41.594;23.808;2023-04-25T09:14:27;94638.28;;;17.43;56.33
24160;BME280;62385;41.594;23.808;2023-04-25T09:17:02;94627.09;;;18.21;54.75
24160;BME280;62385;41.594;23.808;2023-04-25T09:19:46;94625.00;;;18.52;53.92
24160;BME280;62385;41.594;23.808;2023-04-25T09:22:25;94622.59;;;19.62;51.36
24160;BME280;62385;41.594;23.808;2023-04-25T09:24:52;94611.19;;;18.88;54.37
24160;BME280;62385;41.594;23.808;2023-04-25T09:27:20;94620.47;;;18.52;54.54
24160;BME280;62385;41.594;23.808;2023-04-25T09:29:59;94620.78;;;17.76;54.29
24160;BME280;62385;41.594;23.808;2023-04-25T09:32:44;94605.59;;;18.78;52.44
24160;BME280;62385;41.594;23.808;2023-04-25T09:35:10;94604.66;;;17.87;52.65
24160;BME280;62385;41.594;23.808;2023-04-25T09:37:50;94593.81;;;19.12;51.91
24160;BME280;62385;41.594;23.808;2023-04-25T09:40:42;94599.91;;;19.58;51.39
24160;BME280;62385;41.594;23.808;2023-04-25T09:43:23;94599.00;;;19.91;49.90
24160;BME280;62385;41.594;23.808;2023-04-25T09:45:51;94594.88;;;19.45;50.73
24160;BME280;62385;41.594;23.808;2023-04-25T09:48:22;94592.81;;;19.35;51.19
24160;BME280;62385;41.594;23.808;2023-04-25T09:51:13;94582.84;;;19.91;48.47
24160;BME280;62385;41.594;23.808;2023-04-25T09:53:45;94574.16;;;19.45;49.68
24160;BME280;62385;41.594;23.808;2023-04-25T09:56:35;94566.03;;;19.62;45.84
24160;BME280;62385;41.594;23.808;2023-04-25T09:59:04;94563.41;;;20.10;44.53
24160;BME280;62385;41.594;23.808;2023-04-25T10:01:33;94556.28;;;19.77;50.76
24160;BME280;62385;41.594;23.808;2023-04-25T10:04:23;94561.91;;;19.76;48.68
24160;BME280;62385;41.594;23.808;2023-04-25T10:07:13;94558.53;;;20.07;48.31
24160;BME280;62385;41.594;23.808;2023-04-25T10:09:47;94554.56;;;20.15;47.41
24160;BME280;62385;41.594;23.808;2023-04-25T10:12:16;94554.75;;;18.93;46.17
24160;BME280;62385;41.594;23.808;2023-04-25T10:14:42;94548.63;;;19.69;46.39
24160;BME280;62385;41.594;23.808;2023-04-25T10:17:10;94541.47;;;20.23;44.45
24160;BME280;62385;41.594;23.808;2023-04-25T10:19:36;94530.56;;;20.35;46.04
24160;BME280;62385;41.594;23.808;2023-04-25T10:22:13;94544.19;;;19.80;46.12
24160;BME280;62385;41.594;23.808;2023-04-25T10:24:41;94535.91;;;20.08;46.95
24160;BME280;62385;41.594;23.808;2023-04-25T10:27:07;94524.94;;;20.37;45.49
24160;BME280;62385;41.594;23.808;2023-04-25T10:29:34;94512.72;;;20.07;45.88
24160;BME280;62385;41.594;23.808;2023-04-25T10:32:00;94507.13;;;20.14;44.01
24160;BME280;62385;41.594;23.808;2023-04-25T10:34:43;94513.78;;;19.41;45.51
24160;BME280;62385;41.594;23.808;2023-04-25T10:37:13;94493.69;;;19.92;42.58
24160;BME280;62385;41.594;23.808;2023-04-25T10:39:40;94489.28;;;20.61;42.80
24160;BME280;62385;41.594;23.808;2023-04-25T10:42:09;94477.13;;;20.96;41.07
24160;BME280;62385;41.594;23.808;2023-04-25T10:44:37;94470.31;;;20.51;41.81
24160;BME280;62385;41.594;23.808;2023-04-25T10:47:03;94471.00;;;21.05;44.94
24160;BME280;62385;41.594;23.808;2023-04-25T10:49:33;94465.53;;;20.95;44.04
24160;BME280;62385;41.594;23.808;2023-04-25T10:54:52;94465.44;;;20.48;43.58
24160;BME280;62385;41.594;23.808;2023-04-25T10:57:31;94461.63;;;21.65;41.79
24160;BME280;62385;41.594;23.808;2023-04-25T11:00:04;94463.41;;;20.34;41.50
24160;BME280;62385;41.594;23.808;2023-04-25T11:02:36;94448.84;;;20.66;43.25
24160;BME280;62385;41.594;23.808;2023-04-25T11:05:06;94454.16;;;20.88;43.16
24160;BME280;62385;41.594;23.808;2023-04-25T11:07:39;94456.44;;;21.06;41.80
24160;BME280;62385;41.594;23.808;2023-04-25T11:10:09;94453.09;;;21.31;42.09
24160;BME280;62385;41.594;23.808;2023-04-25T11:12:35;94456.53;;;19.46;42.56
24160;BME280;62385;41.594;23.808;2023-04-25T11:15:04;94457.44;;;19.56;42.80
24160;BME280;62385;41.594;23.808;2023-04-25T11:17:30;94453.22;;;20.72;42.09
24160;BME280;62385;41.594;23.808;2023-04-25T11:19:56;94438.63;;;21.52;41.16
24160;BME280;62385;41.594;23.808;2023-04-25T11:22:22;94441.25;;;21.42;40.37
24160;BME280;62385;41.594;23.808;2023-04-25T11:24:49;94441.97;;;21.23;42.31
24160;BME280;62385;41.594;23.808;2023-04-25T11:27:15;94443.31;;;21.82;39.14
24160;BME280;62385;41.594;23.808;2023-04-25T11:29:42;94445.19;;;21.14;41.34
24160;BME280;62385;41.594;23.808;2023-04-25T11:32:07;94441.84;;;21.54;39.26
24160;BME280;62385;41.594;23.808;2023-04-25T11:34:33;94436.91;;;21.93;39.30
24160;BME280;62385;41.594;23.808;2023-04-25T11:37:00;94439.47;;;21.11;37.64
24160;BME280;62385;41.594;23.808;2023-04-25T11:39:27;94442.91;;;21.43;37.35
24160;BME280;62385;41.594;23.808;2023-04-25T11:41:54;94459.69;;;20.71;40.52
24160;BME280;62385;41.594;23.808;2023-04-25T11:44:21;94467.31;;;19.29;43.68
24160;BME280;62385;41.594;23.808;2023-04-25T11:46:52;94482.66;;;18.57;45.16
24160;BME280;62385;41.594;23.808;2023-04-25T11:49:18;94475.00;;;18.04;46.02
24160;BME280;62385;41.594;23.808;2023-04-25T11:51:48;94487.78;;;17.45;52.25
24160;BME280;62385;41.594;23.808;2023-04-25T11:54:29;94499.66;;;16.97;49.51
24160;BME280;62385;41.594;23.808;2023-04-25T12:08:15;94460.19;;;18.63;46.72
24160;BME280;62385;41.594;23.808;2023-04-25T12:11:03;94442.22;;;18.68;52.96
24160;BME280;62385;41.594;23.808;2023-04-25T12:13:31;94438.22;;;18.87;53.13
24160;BME280;62385;41.594;23.808;2023-04-25T12:15:57;94435.06;;;19.12;51.71
24160;BME280;62385;41.594;23.808;2023-04-25T12:18:25;94432.13;;;20.64;49.50
24160;BME280;62385;41.594;23.808;2023-04-25T12:20:54;94430.13;;;19.96;49.67
24160;BME280;62385;41.594;23.808;2023-04-25T12:23:26;94429.66;;;18.90;47.83
24160;BME280;62385;41.594;23.808;2023-04-25T12:25:53;94423.72;;;18.05;47.34
24160;BME280;62385;41.594;23.808;2023-04-25T12:28:24;94417.47;;;18.33;45.15
24160;BME280;62385;41.594;23.808;2023-04-25T12:31:00;94420.91;;;18.62;43.59
24160;BME280;62385;41.594;23.808;2023-04-25T12:33:29;94409.56;;;18.43;44.73
24160;BME280;62385;41.594;23.808;2023-04-25T12:35:57;94414.03;;;19.31;43.90
24160;BME280;62385;41.594;23.808;2023-04-25T12:38:31;94417.19;;;18.84;40.79
24160;BME280;62385;41.594;23.808;2023-04-25T12:40:57;94410.84;;;19.77;41.38
24160;BME280;62385;41.594;23.808;2023-04-25T12:43:23;94406.13;;;20.16;42.97
24160;BME280;62385;41.594;23.808;2023-04-25T12:45:54;94407.09;;;19.35;41.43
24160;BME280;62385;41.594;23.808;2023-04-25T12:48:21;94401.41;;;19.31;41.47
24160;BME280;62385;41.594;23.808;2023-04-25T12:50:48;94398.56;;;20.50;40.68
24160;BME280;62385;41.594;23.808;2023-04-25T12:53:18;94393.19;;;20.50;39.74
24160;BME280;62385;41.594;23.808;2023-04-25T12:55:46;94407.13;;;20.10;41.54
24160;BME280;62385;41.594;23.808;2023-04-25T12:58:13;94413.88;;;20.13;41.21
24160;BME280;62385;41.594;23.808;2023-04-25T13:00:39;94411.16;;;19.59;40.40
24160;BME280;62385;41.594;23.808;2023-04-25T13:03:05;94406.50;;;20.62;40.00
24160;BME280;62385;41.594;23.808;2023-04-25T13:05:34;94410.69;;;20.85;39.03
24160;BME280;62385;41.594;23.808;2023-04-25T13:08:00;94402.91;;;22.43;37.21
24160;BME280;62385;41.594;23.808;2023-04-25T13:10:26;94408.31;;;22.48;36.97
24160;BME280;62385;41.594;23.808;2023-04-25T13:12:52;94407.75;;;22.41;38.45
24160;BME280;62385;41.594;23.808;2023-04-25T13:15:18;94410.69;;;22.09;37.73
24160;BME280;62385;41.594;23.808;2023-04-25T13:17:43;94407.13;;;21.21;37.95
24160;BME280;62385;41.594;23.808;2023-04-25T13:20:10;94401.56;;;20.49;41.27
24160;BME280;62385;41.594;23.808;2023-04-25T13:22:37;94402.13;;;20.98;41.73
24160;BME280;62385;41.594;23.808;2023-04-25T13:25:05;94414.97;;;20.12;44.29
24160;BME280;62385;41.594;23.808;2023-04-25T13:27:32;94410.84;;;20.31;43.31
24160;BME280;62385;41.594;23.808;2023-04-25T13:30:00;94407.41;;;20.41;41.70
24160;BME280;62385;41.594;23.808;2023-04-25T13:32:30;94414.16;;;20.11;38.81
24160;BME280;62385;41.594;23.808;2023-04-25T13:34:58;94434.50;;;19.32;41.31
24160;BME280;62385;41.594;23.808;2023-04-25T13:37:30;94430.56;;;19.83;41.21
24160;BME280;62385;41.594;23.808;2023-04-25T13:39:59;94440.38;;;19.46;40.87
24160;BME280;62385;41.594;23.808;2023-04-25T13:42:25;94449.28;;;19.08;43.80
24160;BME280;62385;41.594;23.808;2023-04-25T13:44:51;94456.88;;;18.77;45.98
24160;BME280;62385;41.594;23.808;2023-04-25T13:47:16;94461.09;;;18.23;44.31
24160;BME280;62385;41.594;23.808;2023-04-25T13:49:42;94461.50;;;18.32;46.44
24160;BME280;62385;41.594;23.808;2023-04-25T13:52:07;94463.59;;;18.75;46.10
24160;BME280;62385;41.594;23.808;2023-04-25T13:54:33;94446.84;;;18.23;47.15
24160;BME280;62385;41.594;23.808;2023-04-25T13:56:58;94453.34;;;18.55;47.07
24160;BME280;62385;41.594;23.808;2023-04-25T13:59:24;94452.91;;;19.40;44.77
24160;BME280;62385;41.594;23.808;2023-04-25T14:01:51;94441.19;;;19.08;45.08
24160;BME280;62385;41.594;23.808;2023-04-25T14:04:17;94447.97;;;18.94;46.54
24160;BME280;62385;41.594;23.808;2023-04-25T14:06:42;94454.47;;;19.14;46.86
24160;BME280;62385;41.594;23.808;2023-04-25T14:09:08;94444.84;;;18.80;49.58
24160;BME280;62385;41.594;23.808;2023-04-25T14:11:38;94441.44;;;19.06;49.95
24160;BME280;62385;41.594;23.808;2023-04-25T14:14:04;94437.00;;;18.95;47.70
24160;BME280;62385;41.594;23.808;2023-04-25T14:16:30;94436.38;;;19.10;46.08
24160;BME280;62385;41.594;23.808;2023-04-25T14:18:59;94430.31;;;19.19;44.20
24160;BME280;62385;41.594;23.808;2023-04-25T14:21:25;94427.75;;;19.08;44.37